createdAt,value
2022-12-31T00:01:51.615Z,76.00
2022-12-31T00:04:22.514Z,74.40
2022-12-31T00:06:53.196Z,77.80
2022-12-31T00:09:26.433Z,77.30
2022-12-31T00:11:56.904Z,73.20
2022-12-31T00:14:27.894Z,74.30
2022-12-31T00:16:58.396Z,75.80
2022-12-31T00:19:29.462Z,71.90
2022-12-31T00:22:00.140Z,67.50
2022-12-31T00:24:32.171Z,73.50
2022-12-31T00:27:03.613Z,79.40
2022-12-31T00:29:34.359Z,81.90
2022-12-31T00:32:04.869Z,85.90
2022-12-31T00:34:35.709Z,70.10
2022-12-31T00:37:06.429Z,73.10
2022-12-31T00:39:37.380Z,75.60
2022-12-31T00:42:07.912Z,75.60
2022-12-31T00:44:38.746Z,64.80
2022-12-31T00:47:09.291Z,75.60
2022-12-31T00:49:40.215Z,78.80
2022-12-31T00:52:13.900Z,78.40
2022-12-31T00:54:44.641Z,78.10
2022-12-31T00:57:15.481Z,70.30
2022-12-31T00:59:46.530Z,72.10
2022-12-31T01:02:17.154Z,67.70
2022-12-31T01:04:48.289Z,74.90
2022-12-31T01:07:19.464Z,74.90
2022-12-31T01:09:50.275Z,80.10
2022-12-31T01:12:21.113Z,75.30
2022-12-31T01:14:52.046Z,74.60
2022-12-31T01:17:22.644Z,74.10
2022-12-31T01:19:53.509Z,71.20
2022-12-31T01:22:23.974Z,67.80
2022-12-31T01:24:54.869Z,76.10
2022-12-31T01:27:25.570Z,79.70
2022-12-31T01:29:56.967Z,65.00
2022-12-31T01:32:27.700Z,70.10
2022-12-31T01:34:59.036Z,70.30
2022-12-31T01:37:29.664Z,71.10
2022-12-31T01:40:00.517Z,76.90
2022-12-31T01:42:31.239Z,65.50
2022-12-31T01:45:02.270Z,78.40
2022-12-31T01:47:38.333Z,74.10
2022-12-31T01:50:14.680Z,72.60
2022-12-31T01:52:47.481Z,70.60
2022-12-31T01:55:20.416Z,76.50
2022-12-31T01:57:54.316Z,65.20
2022-12-31T02:00:25.177Z,66.40
2022-12-31T02:02:56.394Z,70.10
2022-12-31T02:05:28.577Z,74.10
2022-12-31T02:08:00.490Z,67.50
2022-12-31T02:10:31.207Z,64.90
2022-12-31T02:13:01.954Z,65.50
2022-12-31T02:15:38.608Z,65.30
2022-12-31T02:18:14.546Z,70.70
2022-12-31T02:20:55.541Z,73.40
2022-12-31T02:23:40.485Z,69.90
2022-12-31T02:26:23.944Z,66.80
2022-12-31T02:29:08.516Z,64.30
2022-12-31T02:31:41.552Z,65.80
2022-12-31T02:34:14.885Z,61.60
2022-12-31T02:36:47.763Z,63.60
2022-12-31T02:39:18.678Z,65.20
2022-12-31T02:41:53.994Z,63.70
2022-12-31T02:44:26.153Z,68.90
2022-12-31T02:47:01.301Z,62.60
2022-12-31T02:49:35.068Z,76.80
2022-12-31T02:52:08.764Z,64.40
2022-12-31T02:54:45.428Z,65.20
2022-12-31T02:57:20.644Z,66.10
2022-12-31T03:00:10.452Z,67.10
2022-12-31T03:02:43.389Z,66.20
2022-12-31T03:05:15.103Z,69.10
2022-12-31T03:07:46.550Z,72.20
2022-12-31T03:10:17.269Z,76.20
2022-12-31T03:12:48.805Z,72.10
2022-12-31T03:15:23.866Z,69.30
2022-12-31T03:17:59.436Z,73.60
2022-12-31T03:20:49.280Z,69.90
2022-12-31T03:23:21.955Z,73.60
2022-12-31T03:25:53.505Z,74.20
2022-12-31T03:28:27.516Z,68.70
2022-12-31T03:30:59.043Z,75.50
2022-12-31T03:33:33.705Z,71.90
2022-12-31T03:36:06.227Z,81.40
2022-12-31T03:38:37.274Z,76.80
2022-12-31T03:41:10.519Z,81.20
2022-12-31T03:43:41.645Z,76.90
2022-12-31T03:46:12.685Z,76.90
2022-12-31T03:48:43.730Z,75.30
2022-12-31T03:51:14.261Z,82.70
2022-12-31T03:53:45.127Z,79.60
2022-12-31T03:56:15.933Z,83.90
2022-12-31T03:58:47.114Z,83.40
2022-12-31T04:01:18.041Z,80.30
2022-12-31T04:03:49.192Z,82.80
2022-12-31T04:06:19.677Z,82.00
2022-12-31T04:08:50.619Z,83.40
2022-12-31T04:11:21.366Z,79.30
2022-12-31T04:13:52.389Z,81.50
2022-12-31T04:16:23.061Z,82.20
2022-12-31T04:18:54.064Z,76.90
2022-12-31T04:21:26.855Z,75.70
2022-12-31T04:24:01.868Z,80.20
2022-12-31T04:26:32.505Z,79.10
2022-12-31T04:29:03.239Z,74.50
2022-12-31T04:31:34.768Z,70.70
2022-12-31T04:34:05.660Z,73.30
2022-12-31T04:36:36.563Z,70.30
2022-12-31T04:39:07.318Z,73.20
2022-12-31T04:41:37.932Z,77.50
2022-12-31T04:44:08.825Z,83.10
2022-12-31T04:46:39.395Z,96.80
2022-12-31T04:49:10.389Z,77.90
2022-12-31T04:51:41.184Z,89.20
2022-12-31T04:54:12.031Z,85.90
2022-12-31T04:56:42.529Z,80.50
2022-12-31T04:59:13.468Z,76.40
2022-12-31T05:01:44.119Z,79.10
2022-12-31T05:04:15.409Z,76.40
2022-12-31T05:06:45.883Z,78.90
2022-12-31T05:09:16.713Z,74.20
2022-12-31T05:11:47.339Z,88.50
2022-12-31T05:14:20.538Z,77.20
2022-12-31T05:16:51.430Z,81.20
2022-12-31T05:19:22.507Z,79.90
2022-12-31T05:22:06.856Z,83.40
2022-12-31T05:24:37.710Z,81.10
2022-12-31T05:27:08.191Z,86.90
2022-12-31T05:29:38.945Z,82.10
2022-12-31T05:32:09.588Z,83.60
2022-12-31T05:34:40.544Z,80.30
2022-12-31T05:37:12.291Z,85.60
2022-12-31T05:39:43.229Z,75.70
2022-12-31T05:42:13.861Z,80.90
2022-12-31T05:44:44.629Z,89.80
2022-12-31T05:47:15.223Z,83.90
2022-12-31T05:49:46.165Z,77.00
2022-12-31T05:52:18.024Z,82.20
2022-12-31T05:54:48.952Z,76.90
2022-12-31T05:57:19.585Z,79.40
2022-12-31T05:59:50.559Z,82.80
2022-12-31T06:02:21.395Z,79.50
2022-12-31T06:04:52.772Z,82.80
2022-12-31T06:07:23.331Z,84.00
2022-12-31T06:09:54.380Z,81.80
2022-12-31T06:12:25.411Z,83.00
2022-12-31T06:14:56.767Z,80.00
2022-12-31T06:17:27.516Z,75.70
2022-12-31T06:19:58.329Z,79.30
2022-12-31T06:22:29.454Z,80.90
2022-12-31T06:25:00.343Z,79.70
2022-12-31T06:27:30.949Z,77.20
2022-12-31T06:30:02.802Z,82.40
2022-12-31T06:32:35.139Z,83.20
2022-12-31T06:35:07.758Z,80.60
2022-12-31T06:37:38.243Z,77.00
2022-12-31T06:40:10.419Z,78.30
2022-12-31T06:42:42.503Z,79.70
2022-12-31T06:45:13.917Z,75.00
2022-12-31T06:47:44.420Z,79.70
2022-12-31T06:50:15.218Z,74.70
2022-12-31T06:52:45.756Z,71.60
2022-12-31T06:55:17.644Z,77.50
2022-12-31T06:57:48.516Z,74.70
2022-12-31T07:00:20.961Z,66.00
2022-12-31T07:03:15.836Z,78.20
2022-12-31T07:05:48.696Z,85.40
2022-12-31T07:08:26.982Z,78.20
2022-12-31T07:11:01.114Z,60.30
2022-12-31T07:13:42.888Z,86.70
2022-12-31T07:16:18.612Z,69.90
2022-12-31T07:18:52.117Z,70.40
2022-12-31T07:21:26.436Z,64.10
2022-12-31T07:23:57.544Z,73.10
2022-12-31T07:26:36.857Z,62.90
2022-12-31T07:29:12.099Z,62.50
2022-12-31T07:31:54.033Z,70.80
2022-12-31T07:34:27.778Z,66.50
2022-12-31T07:37:03.506Z,59.60
2022-12-31T07:39:40.366Z,55.10
2022-12-31T07:42:15.419Z,59.70
2022-12-31T07:44:51.718Z,47.50
2022-12-31T07:47:24.158Z,51.40
2022-12-31T07:49:55.485Z,51.00
2022-12-31T07:52:27.666Z,48.20
2022-12-31T07:54:58.277Z,46.80
2022-12-31T07:57:33.266Z,45.10
2022-12-31T08:00:07.703Z,45.40
2022-12-31T08:03:03.524Z,52.60
2022-12-31T08:05:36.344Z,46.20
2022-12-31T08:08:14.230Z,43.60
2022-12-31T08:10:49.012Z,32.80
2022-12-31T08:13:19.852Z,37.90
2022-12-31T08:15:51.624Z,31.50
2022-12-31T08:18:23.092Z,43.00
2022-12-31T08:20:57.910Z,44.40
2022-12-31T08:23:31.644Z,40.50
2022-12-31T08:26:07.397Z,49.70
2022-12-31T08:28:45.418Z,43.90
2022-12-31T08:31:17.967Z,37.10
2022-12-31T08:33:52.772Z,37.50
2022-12-31T08:36:28.443Z,35.10
2022-12-31T08:39:02.632Z,30.50
2022-12-31T08:41:42.265Z,35.90
2022-12-31T08:44:17.912Z,40.50
2022-12-31T08:46:51.101Z,44.90
2022-12-31T08:51:51.569Z,37.60
2022-12-31T08:54:23.208Z,32.60
2022-12-31T08:56:58.733Z,27.00
2022-12-31T08:59:38.491Z,29.80
2022-12-31T09:02:21.819Z,22.50
2022-12-31T09:04:59.509Z,24.40
2022-12-31T09:07:34.027Z,24.40
2022-12-31T09:10:09.069Z,22.50
2022-12-31T09:12:42.872Z,26.60
2022-12-31T09:15:16.530Z,26.00
2022-12-31T09:17:47.901Z,24.30
2022-12-31T09:20:22.465Z,30.60
2022-12-31T09:22:53.990Z,29.60
2022-12-31T09:25:26.230Z,34.70
2022-12-31T09:28:04.484Z,28.60
2022-12-31T09:30:41.482Z,24.60
2022-12-31T09:33:14.038Z,29.00
2022-12-31T09:35:49.314Z,23.60
2022-12-31T09:38:22.290Z,22.90
2022-12-31T09:40:59.660Z,12.30
2022-12-31T09:43:48.634Z,11.80
2022-12-31T09:46:47.704Z,18.30
2022-12-31T09:49:39.124Z,12.80
2022-12-31T09:52:16.347Z,9.20
2022-12-31T09:54:53.506Z,9.10
2022-12-31T09:57:31.483Z,7.50
2022-12-31T10:00:04.290Z,5.90
2022-12-31T10:03:01.774Z,6.80
2022-12-31T10:05:52.289Z,8.60
2022-12-31T10:08:30.669Z,6.20
2022-12-31T10:11:05.020Z,8.20
2022-12-31T10:13:44.873Z,7.20
2022-12-31T10:16:35.267Z,7.80
2022-12-31T10:19:37.882Z,8.30
2022-12-31T10:22:15.530Z,8.10
2022-12-31T10:24:57.242Z,7.40
2022-12-31T10:27:36.883Z,8.50
2022-12-31T10:30:13.260Z,7.00
2022-12-31T10:32:46.073Z,6.40
2022-12-31T10:35:29.180Z,6.60
2022-12-31T10:38:04.658Z,6.20
2022-12-31T10:40:43.545Z,6.90
2022-12-31T10:43:32.377Z,5.80
2022-12-31T10:46:26.269Z,5.60
2022-12-31T10:49:05.379Z,6.10
2022-12-31T10:51:54.159Z,6.00
2022-12-31T10:54:41.688Z,5.60
2022-12-31T10:57:26.249Z,7.30
2022-12-31T11:00:10.513Z,5.00
2022-12-31T11:02:57.697Z,6.20
2022-12-31T11:05:39.694Z,4.40
2022-12-31T11:08:18.454Z,5.20
2022-12-31T11:10:58.108Z,5.00
2022-12-31T11:13:45.619Z,4.90
2022-12-31T11:16:30.030Z,5.80
2022-12-31T11:19:03.308Z,4.60
2022-12-31T11:21:41.829Z,4.10
2022-12-31T11:24:19.266Z,4.50
2022-12-31T11:26:58.402Z,5.20
2022-12-31T11:29:36.799Z,4.10
2022-12-31T11:32:15.526Z,5.10
2022-12-31T11:34:59.397Z,4.10
2022-12-31T11:37:32.666Z,4.00
2022-12-31T11:42:41.393Z,3.80
2022-12-31T11:45:16.612Z,5.20
2022-12-31T11:50:48.848Z,4.80
2022-12-31T11:53:26.411Z,4.10
2022-12-31T11:56:02.373Z,5.60
2022-12-31T11:58:33.134Z,4.10
2022-12-31T12:01:06.783Z,4.10
2022-12-31T12:03:42.615Z,4.30
2022-12-31T12:06:14.891Z,4.40
2022-12-31T12:08:46.179Z,4.10
2022-12-31T12:11:20.186Z,3.80
2022-12-31T12:13:51.310Z,4.70
2022-12-31T12:16:23.098Z,4.90
2022-12-31T12:19:03.639Z,4.90
2022-12-31T12:21:35.180Z,4.20
2022-12-31T12:24:07.566Z,4.30
2022-12-31T12:26:39.128Z,5.40
2022-12-31T12:29:13.537Z,5.50
2022-12-31T12:31:55.249Z,4.50
2022-12-31T12:34:27.252Z,5.00
2022-12-31T12:36:58.436Z,6.00
2022-12-31T12:39:29.909Z,5.00
2022-12-31T12:42:08.504Z,5.00
2022-12-31T12:44:40.367Z,4.30
2022-12-31T12:47:15.470Z,4.30
2022-12-31T12:49:47.738Z,4.90
2022-12-31T12:52:28.247Z,6.40
2022-12-31T12:55:06.614Z,4.60
2022-12-31T12:57:45.426Z,5.80
2022-12-31T13:00:18.974Z,5.20
2022-12-31T13:03:06.036Z,4.50
2022-12-31T13:05:42.954Z,5.50
2022-12-31T13:08:22.085Z,6.40
2022-12-31T13:10:58.427Z,5.50
2022-12-31T13:13:34.983Z,4.60
2022-12-31T13:16:09.690Z,6.70
2022-12-31T13:18:48.324Z,3.90
2022-12-31T13:21:32.522Z,5.40
2022-12-31T13:24:08.164Z,5.10
2022-12-31T13:26:40.917Z,4.50
2022-12-31T13:29:14.883Z,4.70
2022-12-31T13:31:46.931Z,4.80
2022-12-31T13:34:19.895Z,5.50
2022-12-31T13:36:51.996Z,6.70
2022-12-31T13:39:26.001Z,6.80
2022-12-31T13:42:00.523Z,6.50
2022-12-31T13:44:36.261Z,5.70
2022-12-31T13:47:12.882Z,6.50
2022-12-31T13:49:45.440Z,6.50
2022-12-31T13:52:21.506Z,5.30
2022-12-31T13:54:56.913Z,5.90
2022-12-31T13:57:33.526Z,7.00
2022-12-31T14:00:05.637Z,7.60
2022-12-31T14:02:44.516Z,6.30
2022-12-31T14:05:18.322Z,6.30
2022-12-31T14:10:21.057Z,7.20
2022-12-31T14:12:55.111Z,6.20
2022-12-31T14:15:30.775Z,6.20
2022-12-31T14:18:04.945Z,7.30
2022-12-31T14:20:43.235Z,6.30
2022-12-31T14:23:18.037Z,8.60
2022-12-31T14:25:50.637Z,5.90
2022-12-31T14:28:25.473Z,6.10
2022-12-31T14:30:58.148Z,6.10
2022-12-31T14:33:46.508Z,5.70
2022-12-31T14:36:29.245Z,5.80
2022-12-31T14:39:06.821Z,7.70
2022-12-31T14:41:44.724Z,7.50
2022-12-31T14:44:28.969Z,7.10
2022-12-31T14:47:04.842Z,6.50
2022-12-31T14:49:39.960Z,7.50
2022-12-31T14:52:20.797Z,6.90
2022-12-31T14:55:00.096Z,8.90
2022-12-31T14:58:01.575Z,5.90
2022-12-31T15:00:30.608Z,7.40
2022-12-31T15:03:02.991Z,6.70
2022-12-31T15:05:34.529Z,8.00
2022-12-31T15:08:20.823Z,7.90
2022-12-31T15:10:59.136Z,6.70
2022-12-31T15:13:38.259Z,7.40
2022-12-31T15:16:15.344Z,8.60
2022-12-31T15:18:56.879Z,8.90
2022-12-31T15:21:34.145Z,9.40
2022-12-31T15:24:13.464Z,6.50
2022-12-31T15:26:49.566Z,6.80
2022-12-31T15:29:31.158Z,7.20
2022-12-31T15:32:04.098Z,6.70
2022-12-31T15:34:36.048Z,9.10
2022-12-31T15:37:07.497Z,8.60
2022-12-31T15:39:44.663Z,7.00
2022-12-31T15:42:39.247Z,8.00
2022-12-31T15:45:17.328Z,9.10
2022-12-31T15:47:50.163Z,8.90
2022-12-31T15:50:22.750Z,8.40
2022-12-31T15:52:54.294Z,6.50
2022-12-31T15:55:27.205Z,7.60
2022-12-31T16:00:30.731Z,9.30
2022-12-31T16:03:01.467Z,8.00
2022-12-31T16:05:35.450Z,8.50
2022-12-31T16:08:06.388Z,6.20
2022-12-31T16:10:37.320Z,9.40
2022-12-31T16:13:07.827Z,7.90
2022-12-31T16:15:38.945Z,8.00
2022-12-31T16:18:18.943Z,10.00
2022-12-31T16:20:55.192Z,8.10
2022-12-31T16:23:27.736Z,8.70
2022-12-31T16:26:01.269Z,8.70
2022-12-31T16:28:33.026Z,9.70
2022-12-31T16:31:04.942Z,9.90
2022-12-31T16:33:35.584Z,8.70
2022-12-31T16:36:06.803Z,8.80
2022-12-31T16:38:38.506Z,8.90
2022-12-31T16:41:16.212Z,8.80
2022-12-31T16:43:47.489Z,9.70
2022-12-31T16:46:20.627Z,11.20
2022-12-31T16:48:54.555Z,9.80
2022-12-31T16:51:28.863Z,8.40
2022-12-31T16:56:32.290Z,13.00
2022-12-31T16:59:04.769Z,12.00
2022-12-31T17:01:36.891Z,14.10
2022-12-31T17:04:10.281Z,11.90
2022-12-31T17:06:41.392Z,12.50
2022-12-31T17:09:14.879Z,12.70
2022-12-31T17:11:50.514Z,10.80
2022-12-31T17:14:23.284Z,12.10
2022-12-31T17:17:02.809Z,10.60
2022-12-31T17:19:36.087Z,11.00
2022-12-31T17:22:10.130Z,12.50
2022-12-31T17:24:41.168Z,12.30
2022-12-31T17:27:12.210Z,14.90
2022-12-31T17:29:44.435Z,12.10
2022-12-31T17:32:32.036Z,11.80
2022-12-31T17:35:02.634Z,14.20
2022-12-31T17:37:33.267Z,11.10
2022-12-31T17:40:41.074Z,12.80
2022-12-31T17:42:54.635Z,14.00
2022-12-31T17:45:25.196Z,11.00
2022-12-31T17:47:59.947Z,12.20
2022-12-31T17:50:30.470Z,12.70
2022-12-31T17:53:03.767Z,12.90
2022-12-31T17:55:34.271Z,9.60
2022-12-31T17:58:06.190Z,12.00
2022-12-31T18:00:38.123Z,11.90
2022-12-31T18:03:09.213Z,12.60
2022-12-31T18:05:39.740Z,11.20
2022-12-31T18:08:10.675Z,10.50
2022-12-31T18:10:41.980Z,10.20
2022-12-31T18:13:15.868Z,11.60
2022-12-31T18:15:46.636Z,10.90
2022-12-31T18:18:25.193Z,10.70
2022-12-31T18:20:58.938Z,12.50
2022-12-31T18:23:31.685Z,12.50
2022-12-31T18:26:02.263Z,12.20
2022-12-31T18:28:33.422Z,12.50
2022-12-31T18:31:04.428Z,13.80
2022-12-31T18:33:35.980Z,14.00
2022-12-31T18:36:09.562Z,11.20
2022-12-31T18:38:41.603Z,16.70
2022-12-31T18:41:16.985Z,14.30
2022-12-31T18:43:48.189Z,14.20
2022-12-31T18:46:20.850Z,14.80
2022-12-31T18:48:51.841Z,14.10
2022-12-31T18:51:29.357Z,14.60
2022-12-31T18:54:03.366Z,14.70
2022-12-31T18:56:33.983Z,15.50
2022-12-31T18:59:04.925Z,15.20
2022-12-31T19:01:36.602Z,14.50
2022-12-31T19:04:13.177Z,13.90
2022-12-31T19:06:44.955Z,13.30
2022-12-31T19:09:43.493Z,15.40
2022-12-31T19:12:06.803Z,16.00
2022-12-31T19:14:37.583Z,14.90
2022-12-31T19:19:37.429Z,13.80
2022-12-31T19:22:11.026Z,13.00
2022-12-31T19:24:41.744Z,14.10
2022-12-31T19:27:17.113Z,12.40
2022-12-31T19:29:47.613Z,13.60
2022-12-31T19:32:18.900Z,11.70
2022-12-31T19:34:49.387Z,15.60
2022-12-31T19:37:20.628Z,14.10
2022-12-31T19:39:51.265Z,11.60
2022-12-31T19:42:22.609Z,12.80
2022-12-31T19:44:53.597Z,14.90
2022-12-31T19:47:25.095Z,14.80
2022-12-31T19:49:55.544Z,12.40
2022-12-31T19:52:26.467Z,15.90
2022-12-31T19:54:57.106Z,13.60
2022-12-31T19:57:27.930Z,14.90
2022-12-31T19:59:58.564Z,15.40
2022-12-31T20:02:29.839Z,13.90
2022-12-31T20:05:00.552Z,13.30
2022-12-31T20:07:31.716Z,15.60
2022-12-31T20:10:02.307Z,18.40
2022-12-31T20:12:35.649Z,25.70
2022-12-31T20:15:09.829Z,24.30
2022-12-31T20:17:40.967Z,25.70
2022-12-31T20:20:12.012Z,28.40
2022-12-31T20:22:42.953Z,26.80
2022-12-31T20:25:13.881Z,29.50
2022-12-31T20:27:44.925Z,25.30
2022-12-31T20:30:16.728Z,21.60
2022-12-31T20:32:47.927Z,20.70
2022-12-31T20:35:18.596Z,16.90
2022-12-31T20:37:49.496Z,17.60
2022-12-31T20:40:20.427Z,18.20
2022-12-31T20:42:52.406Z,18.00
2022-12-31T20:45:22.920Z,18.60
2022-12-31T20:47:54.265Z,18.30
2022-12-31T20:50:24.908Z,18.50
2022-12-31T20:52:56.045Z,18.80
2022-12-31T20:55:27.458Z,19.10
2022-12-31T20:57:58.328Z,19.60
2022-12-31T21:00:28.883Z,17.60
2022-12-31T21:03:10.456Z,16.80
2022-12-31T21:05:50.210Z,18.50
2022-12-31T21:08:21.946Z,17.20
2022-12-31T21:10:52.681Z,16.70
2022-12-31T21:13:24.564Z,15.20
2022-12-31T21:15:55.364Z,15.80
2022-12-31T21:18:26.491Z,16.10
2022-12-31T21:20:57.164Z,17.40
2022-12-31T21:23:27.940Z,16.80
2022-12-31T21:25:58.619Z,20.00
2022-12-31T21:28:29.755Z,18.10
2022-12-31T21:31:00.493Z,19.90
2022-12-31T21:33:31.649Z,19.20
2022-12-31T21:36:04.755Z,14.70
2022-12-31T21:38:38.294Z,16.70
2022-12-31T21:41:33.305Z,15.80
2022-12-31T21:44:05.076Z,16.80
2022-12-31T21:46:35.656Z,15.80
2022-12-31T21:49:07.002Z,17.50
2022-12-31T21:51:58.167Z,15.40
2022-12-31T21:54:47.023Z,14.70
2022-12-31T21:57:17.508Z,14.20
2022-12-31T22:00:39.821Z,15.50
2022-12-31T22:03:14.825Z,14.60
2022-12-31T22:05:50.664Z,15.10
2022-12-31T22:08:21.679Z,15.30
2022-12-31T22:10:53.241Z,12.40
2022-12-31T22:13:24.437Z,13.70
2022-12-31T22:16:01.760Z,13.40
2022-12-31T22:18:38.633Z,12.90
2022-12-31T22:21:17.837Z,12.20
2022-12-31T22:23:51.110Z,13.80
2022-12-31T22:26:23.721Z,13.40
2022-12-31T22:28:59.082Z,10.20
2022-12-31T22:31:31.333Z,12.70
2022-12-31T22:34:02.278Z,11.10
2022-12-31T22:36:33.236Z,11.10
2022-12-31T22:39:03.696Z,11.40
2022-12-31T22:41:35.253Z,10.30
2022-12-31T22:44:05.997Z,12.00
2022-12-31T22:46:37.378Z,11.30
2022-12-31T22:49:08.071Z,11.20
2022-12-31T22:51:56.549Z,9.80
2022-12-31T22:54:27.970Z,9.00
2022-12-31T22:56:59.214Z,9.30
2022-12-31T22:59:29.742Z,10.00
2022-12-31T23:02:01.096Z,9.30
2022-12-31T23:04:31.782Z,10.70
2022-12-31T23:07:02.609Z,14.50
2022-12-31T23:09:51.004Z,16.20
2022-12-31T23:12:22.093Z,19.60
2022-12-31T23:15:10.319Z,30.30
2022-12-31T23:17:59.041Z,22.30
2022-12-31T23:20:47.512Z,16.30
2022-12-31T23:23:18.844Z,14.10
2022-12-31T23:25:50.615Z,16.50
2022-12-31T23:28:25.081Z,14.00
2022-12-31T23:30:55.753Z,14.00
2022-12-31T23:33:27.303Z,16.70
2022-12-31T23:36:04.795Z,13.10
2022-12-31T23:38:35.931Z,13.10
2022-12-31T23:41:13.822Z,14.80
2022-12-31T23:43:45.612Z,15.30
2022-12-31T23:46:17.199Z,16.20
2022-12-31T23:48:48.188Z,17.30
2022-12-31T23:51:18.713Z,16.70
2022-12-31T23:53:50.059Z,14.40
2022-12-31T23:56:23.734Z,16.10
2022-12-31T23:58:56.645Z,14.90
